createdAt,value
2018-12-09T00:00:14.079Z,91614.12
2018-12-09T00:02:50.506Z,91612.14
2018-12-09T00:05:26.837Z,91597.92
2018-12-09T00:08:03.049Z,91597.09
2018-12-09T00:10:39.539Z,91590.12
2018-12-09T00:13:15.751Z,91594.63
2018-12-09T00:15:52.028Z,91608.90
2018-12-09T00:18:28.237Z,91599.70
2018-12-09T00:21:04.711Z,91606.42
2018-12-09T00:23:41.027Z,91599.56
2018-12-09T00:26:17.375Z,91588.53
2018-12-09T00:28:53.699Z,91582.66
2018-12-09T00:31:30.623Z,91593.58
2018-12-09T00:34:06.827Z,91588.25
2018-12-09T00:36:43.355Z,91587.48
2018-12-09T00:39:19.631Z,91578.31
2018-12-09T00:41:55.920Z,91583.69
2018-12-09T00:44:32.321Z,91583.03
2018-12-09T00:47:08.571Z,91578.74
2018-12-09T00:49:44.789Z,91584.19
2018-12-09T00:52:21.275Z,91585.53
2018-12-09T00:54:57.465Z,91579.16
2018-12-09T00:57:33.721Z,91576.80
2018-12-09T01:00:13.098Z,91573.08
2018-12-09T01:02:49.569Z,91581.64
2018-12-09T01:05:25.915Z,91579.13
2018-12-09T01:08:02.232Z,91576.69
2018-12-09T01:10:38.478Z,91573.69
2018-12-09T01:13:14.818Z,91575.84
2018-12-09T01:15:51.038Z,91573.16
2018-12-09T01:18:27.506Z,91571.06
2018-12-09T01:21:03.869Z,91567.21
2018-12-09T01:23:40.242Z,91576.70
2018-12-09T01:26:16.636Z,91571.02
2018-12-09T01:28:52.728Z,91554.77
2018-12-09T01:31:29.008Z,91550.70
2018-12-09T01:34:05.468Z,91556.19
2018-12-09T01:36:41.746Z,91549.02
2018-12-09T01:39:18.133Z,91550.37
2018-12-09T01:41:54.459Z,91538.39
2018-12-09T01:44:30.989Z,91545.84
2018-12-09T01:47:07.250Z,91538.33
2018-12-09T01:49:43.621Z,91532.41
2018-12-09T01:52:19.971Z,91534.39
2018-12-09T01:54:56.320Z,91541.84
2018-12-09T01:57:32.601Z,91549.04
2018-12-09T02:00:09.037Z,91549.15
2018-12-09T02:02:45.378Z,91549.05
2018-12-09T02:05:21.846Z,91551.76
2018-12-09T02:07:58.400Z,91547.95
2018-12-09T02:10:34.803Z,91545.45
2018-12-09T02:13:11.119Z,91543.08
2018-12-09T02:15:47.615Z,91535.38
2018-12-09T02:18:23.706Z,91543.45
2018-12-09T02:20:59.960Z,91548.84
2018-12-09T02:23:36.271Z,91550.34
2018-12-09T02:26:12.607Z,91543.66
2018-12-09T02:28:48.927Z,91549.80
2018-12-09T02:31:25.305Z,91539.23
2018-12-09T02:34:02.485Z,91546.80
2018-12-09T02:36:39.337Z,91538.69
2018-12-09T02:39:15.573Z,91543.72
2018-12-09T02:41:51.940Z,91540.38
2018-12-09T02:44:28.257Z,91542.00
2018-12-09T02:47:04.527Z,91545.21
2018-12-09T02:49:40.750Z,91547.17
2018-12-09T02:52:17.164Z,91544.34
2018-12-09T02:54:53.468Z,91536.47
2018-12-09T02:57:29.921Z,91544.09
2018-12-09T03:00:07.046Z,91537.09
2018-12-09T03:02:43.282Z,91537.11
2018-12-09T03:05:19.674Z,91529.71
2018-12-09T03:07:56.203Z,91525.36
2018-12-09T03:10:32.558Z,91526.66
2018-12-09T03:13:08.843Z,91522.21
2018-12-09T03:15:45.054Z,91520.58
2018-12-09T03:18:21.475Z,91515.17
2018-12-09T03:20:57.838Z,91519.47
2018-12-09T03:23:34.083Z,91512.23
2018-12-09T03:26:10.435Z,91514.64
2018-12-09T03:28:46.771Z,91511.09
2018-12-09T03:31:23.038Z,91516.50
2018-12-09T03:33:59.403Z,91520.16
2018-12-09T03:36:35.743Z,91517.62
2018-12-09T03:39:12.116Z,91519.83
2018-12-09T03:41:48.400Z,91522.48
2018-12-09T03:44:24.887Z,91517.80
2018-12-09T03:47:01.128Z,91522.94
2018-12-09T03:49:37.521Z,91516.31
2018-12-09T03:52:13.860Z,91523.91
2018-12-09T03:54:50.366Z,91522.11
2018-12-09T03:57:26.814Z,91517.98
2018-12-09T04:00:03.351Z,91519.45
2018-12-09T04:02:39.738Z,91518.53
2018-12-09T04:05:16.117Z,91523.81
2018-12-09T04:07:52.386Z,91519.72
2018-12-09T04:10:28.812Z,91524.83
2018-12-09T04:13:05.277Z,91521.35
2018-12-09T04:15:41.869Z,91524.20
2018-12-09T04:18:18.344Z,91519.36
2018-12-09T04:20:54.731Z,91518.88
2018-12-09T04:23:31.183Z,91521.00
2018-12-09T04:26:07.519Z,91525.97
2018-12-09T04:28:43.687Z,91529.70
2018-12-09T04:31:23.183Z,91534.61
2018-12-09T04:33:59.516Z,91529.02
2018-12-09T04:36:35.931Z,91525.77
2018-12-09T04:39:12.263Z,91528.83
2018-12-09T04:41:48.573Z,91537.47
2018-12-09T04:44:24.819Z,91536.26
2018-12-09T04:47:01.259Z,91536.05
2018-12-09T04:49:37.488Z,91534.63
2018-12-09T04:52:13.996Z,91530.55
2018-12-09T04:54:50.494Z,91528.62
2018-12-09T04:57:26.831Z,91537.66
2018-12-09T05:00:13.829Z,91538.98
2018-12-09T05:02:50.195Z,91538.48
2018-12-09T05:05:26.398Z,91550.23
2018-12-09T05:08:02.731Z,91544.29
2018-12-09T05:10:38.989Z,91544.83
2018-12-09T05:13:15.499Z,91550.05
2018-12-09T05:15:51.887Z,91546.48
2018-12-09T05:18:28.189Z,91546.61
2018-12-09T05:21:04.432Z,91548.55
2018-12-09T05:23:40.926Z,91546.23
2018-12-09T05:26:17.266Z,91544.59
2018-12-09T05:28:53.554Z,91559.64
2018-12-09T05:31:29.718Z,91553.81
2018-12-09T05:34:06.328Z,91555.31
2018-12-09T05:36:42.689Z,91551.87
2018-12-09T05:39:19.201Z,91553.40
2018-12-09T05:41:55.369Z,91555.45
2018-12-09T05:44:31.771Z,91558.81
2018-12-09T05:47:08.127Z,91560.59
2018-12-09T05:49:44.467Z,91556.36
2018-12-09T05:52:20.691Z,91557.59
2018-12-09T05:54:57.093Z,91557.89
2018-12-09T05:57:33.461Z,91554.42
2018-12-09T06:00:10.276Z,91554.23
2018-12-09T06:02:53.831Z,91554.34
2018-12-09T06:05:30.260Z,91560.75
2018-12-09T06:08:06.539Z,91560.25
2018-12-09T06:10:42.914Z,91565.20
2018-12-09T06:13:19.446Z,91566.77
2018-12-09T06:15:55.785Z,91566.56
2018-12-09T06:18:32.172Z,91565.66
2018-12-09T06:21:09.106Z,91564.81
2018-12-09T06:23:45.485Z,91560.13
2018-12-09T06:26:21.887Z,91561.15
2018-12-09T06:28:58.251Z,91560.44
2018-12-09T06:31:34.649Z,91562.06
2018-12-09T06:34:10.866Z,91565.52
2018-12-09T06:36:47.557Z,91568.38
2018-12-09T06:39:23.763Z,91561.87
2018-12-09T06:42:00.728Z,91565.50
2018-12-09T06:44:36.498Z,91569.92
2018-12-09T06:47:12.824Z,91549.98
2018-12-09T06:49:49.186Z,91541.31
2018-12-09T06:52:25.592Z,91547.39
2018-12-09T06:55:02.216Z,91543.86
2018-12-09T06:57:38.579Z,91533.00
2018-12-09T07:00:14.927Z,91528.94
2018-12-09T07:02:51.218Z,91539.20
2018-12-09T07:05:27.660Z,91529.09
2018-12-09T07:08:04.028Z,91524.78
2018-12-09T07:10:42.101Z,91538.02
2018-12-09T07:13:18.838Z,91533.55
2018-12-09T07:15:55.400Z,91528.08
2018-12-09T07:18:32.161Z,91529.45
2018-12-09T07:21:08.833Z,91535.18
2018-12-09T07:23:45.277Z,91529.18
2018-12-09T07:26:21.663Z,91528.61
2018-12-09T07:28:58.005Z,91528.38
2018-12-09T07:31:34.332Z,91523.50
2018-12-09T07:34:10.760Z,91518.64
2018-12-09T07:36:46.819Z,91513.17
2018-12-09T07:39:23.296Z,91512.09
2018-12-09T07:41:59.727Z,91515.50
2018-12-09T07:44:36.042Z,91513.48
2018-12-09T07:47:12.305Z,91508.60
2018-12-09T07:49:48.736Z,91501.50
2018-12-09T07:52:25.082Z,91506.05
2018-12-09T07:55:01.377Z,91509.43
2018-12-09T07:57:37.582Z,91500.72
2018-12-09T08:00:13.947Z,91494.11
2018-12-09T08:02:51.130Z,91495.31
2018-12-09T08:05:27.346Z,91492.09
2018-12-09T08:08:03.543Z,91491.61
2018-12-09T08:10:40.160Z,91490.88
2018-12-09T08:13:16.454Z,91489.49
2018-12-09T08:15:52.696Z,91487.52
2018-12-09T08:18:29.153Z,91480.02
2018-12-09T08:21:05.580Z,91482.63
2018-12-09T08:23:41.795Z,91484.88
2018-12-09T08:26:18.120Z,91479.41
2018-12-09T08:28:54.341Z,91476.67
2018-12-09T08:31:30.854Z,91475.03
2018-12-09T08:34:06.981Z,91476.41
2018-12-09T08:36:43.279Z,91482.19
2018-12-09T08:39:19.475Z,91480.89
2018-12-09T08:41:55.902Z,91479.49
2018-12-09T08:44:32.097Z,91475.11
2018-12-09T08:47:09.383Z,91472.13
2018-12-09T08:49:53.123Z,91460.02
2018-12-09T08:52:29.555Z,91462.67
2018-12-09T08:55:06.138Z,91463.32
2018-12-09T08:57:42.272Z,91459.30
2018-12-09T09:00:18.523Z,91444.77
2018-12-09T09:02:55.859Z,91441.30
2018-12-09T09:05:32.089Z,91439.27
2018-12-09T09:08:08.778Z,91435.38
2018-12-09T09:10:49.315Z,91437.16
2018-12-09T09:13:25.857Z,91429.58
2018-12-09T09:16:02.220Z,91434.51
2018-12-09T09:18:38.546Z,91435.25
2018-12-09T09:21:14.852Z,91428.66
2018-12-09T09:23:51.284Z,91418.19
2018-12-09T09:26:27.511Z,91414.83
2018-12-09T09:29:04.475Z,91415.80
2018-12-09T09:31:40.576Z,91411.62
2018-12-09T09:34:16.878Z,91406.88
2018-12-09T09:36:53.539Z,91402.00
2018-12-09T09:39:29.764Z,91403.81
2018-12-09T09:42:06.470Z,91394.69
2018-12-09T09:44:43.394Z,91396.63
2018-12-09T09:47:19.599Z,91389.72
2018-12-09T09:49:56.088Z,91387.45
2018-12-09T09:52:35.108Z,91382.40
2018-12-09T09:55:12.652Z,91379.12
2018-12-09T09:57:48.878Z,91373.54
2018-12-09T10:00:25.462Z,91376.84
2018-12-09T10:03:02.316Z,91362.59
2018-12-09T10:05:38.890Z,91358.84
2018-12-09T10:08:15.035Z,91353.63
2018-12-09T10:10:51.432Z,91350.45
2018-12-09T10:13:27.668Z,91346.23
2018-12-09T10:16:04.111Z,91336.37
2018-12-09T10:18:40.475Z,91329.69
2018-12-09T10:21:17.271Z,91324.68
2018-12-09T10:23:53.485Z,91321.06
2018-12-09T10:26:36.465Z,91307.41
2018-12-09T10:29:06.258Z,91318.31
2018-12-09T10:31:42.672Z,91313.14
2018-12-09T10:34:18.911Z,91308.52
2018-12-09T10:36:55.329Z,91309.45
2018-12-09T10:39:31.762Z,91308.12
2018-12-09T10:42:11.587Z,91299.09
2018-12-09T10:44:47.898Z,91298.05
2018-12-09T10:47:24.582Z,91289.73
2018-12-09T10:50:00.764Z,91283.53
2018-12-09T10:52:37.198Z,91285.19
2018-12-09T10:55:13.663Z,91284.52
2018-12-09T10:57:50.037Z,91279.57
2018-12-09T11:00:31.144Z,91270.98
2018-12-09T11:03:07.432Z,91277.89
2018-12-09T11:05:43.755Z,91283.80
2018-12-09T11:08:20.122Z,91274.30
2018-12-09T11:10:56.529Z,91280.63
2018-12-09T11:13:33.016Z,91275.70
2018-12-09T11:16:09.226Z,91271.05
2018-12-09T11:18:45.701Z,91265.19
2018-12-09T11:21:21.981Z,91260.83
2018-12-09T11:23:58.357Z,91268.92
2018-12-09T11:26:34.752Z,91266.20
2018-12-09T11:29:11.628Z,91260.61
2018-12-09T11:31:47.943Z,91261.86
2018-12-09T11:34:24.328Z,91262.89
2018-12-09T11:37:00.526Z,91251.92
2018-12-09T11:39:37.218Z,91247.19
2018-12-09T11:42:16.352Z,91243.64
2018-12-09T11:44:52.715Z,91235.95
2018-12-09T11:47:29.222Z,91238.92
2018-12-09T11:50:07.451Z,91244.53
2018-12-09T11:52:43.673Z,91246.73
2018-12-09T11:55:20.078Z,91241.23
2018-12-09T11:57:56.292Z,91232.73
2018-12-09T12:00:32.774Z,91234.63
2018-12-09T12:03:09.017Z,91236.58
2018-12-09T12:05:45.389Z,91240.92
2018-12-09T12:08:21.718Z,91223.30
2018-12-09T12:10:58.142Z,91227.82
2018-12-09T12:13:34.534Z,91222.03
2018-12-09T12:16:10.957Z,91221.25
2018-12-09T12:18:47.922Z,91218.03
2018-12-09T12:21:24.338Z,91213.13
2018-12-09T12:24:00.548Z,91204.11
2018-12-09T12:26:36.983Z,91212.89
2018-12-09T12:29:13.227Z,91205.89
2018-12-09T12:31:49.987Z,91196.31
2018-12-09T12:34:26.343Z,91187.91
2018-12-09T12:37:02.737Z,91182.27
2018-12-09T12:39:39.171Z,91179.50
2018-12-09T12:42:15.875Z,91173.19
2018-12-09T12:44:52.167Z,91175.66
2018-12-09T12:47:28.586Z,91177.53
2018-12-09T12:50:05.338Z,91179.78
2018-12-09T12:52:41.768Z,91175.28
2018-12-09T12:55:18.025Z,91174.34
2018-12-09T12:57:54.259Z,91177.28
2018-12-09T13:00:30.508Z,91177.98
2018-12-09T13:03:06.931Z,91172.14
2018-12-09T13:05:43.284Z,91171.84
2018-12-09T13:08:19.624Z,91170.30
2018-12-09T13:10:55.771Z,91167.67
2018-12-09T13:13:32.481Z,91162.95
2018-12-09T13:16:08.809Z,91162.67
2018-12-09T13:18:45.244Z,91158.37
2018-12-09T13:21:21.560Z,91173.41
2018-12-09T13:23:57.989Z,91161.72
2018-12-09T13:26:34.296Z,91162.51
2018-12-09T13:29:11.080Z,91149.12
2018-12-09T13:31:47.369Z,91145.39
2018-12-09T13:34:23.814Z,91139.19
2018-12-09T13:37:00.042Z,91156.02
2018-12-09T13:39:36.511Z,91151.41
2018-12-09T13:42:12.901Z,91150.39
2018-12-09T13:44:49.411Z,91147.03
2018-12-09T13:47:25.773Z,91149.38
2018-12-09T13:50:02.163Z,91151.98
2018-12-09T13:52:38.472Z,91153.38
2018-12-09T13:55:15.148Z,91144.12
2018-12-09T13:57:51.583Z,91144.57
2018-12-09T14:00:27.836Z,91152.11
2018-12-09T14:03:04.268Z,91148.70
2018-12-09T14:05:40.727Z,91145.47
2018-12-09T14:08:16.952Z,91132.63
2018-12-09T14:10:53.258Z,91136.61
2018-12-09T14:13:29.507Z,91143.27
2018-12-09T14:16:05.852Z,91139.67
2018-12-09T14:18:42.027Z,91136.16
2018-12-09T14:21:18.478Z,91139.54
2018-12-09T14:23:54.666Z,91139.89
2018-12-09T14:26:31.070Z,91142.55
2018-12-09T14:29:07.534Z,91137.84
2018-12-09T14:31:44.112Z,91150.66
2018-12-09T14:34:20.408Z,91139.41
2018-12-09T14:36:56.692Z,91143.62
2018-12-09T14:39:34.336Z,91139.95
2018-12-09T14:42:09.360Z,91139.09
2018-12-09T14:44:45.653Z,91146.27
2018-12-09T14:47:23.576Z,91144.08
2018-12-09T14:50:00.376Z,91145.24
2018-12-09T14:52:37.078Z,91154.33
2018-12-09T14:55:13.696Z,91147.00
2018-12-09T14:57:50.865Z,91153.39
2018-12-09T15:00:28.628Z,91144.54
2018-12-09T15:03:05.893Z,91145.13
2018-12-09T15:05:42.704Z,91142.58
2018-12-09T15:08:19.647Z,91147.48
2018-12-09T15:10:56.343Z,91158.92
2018-12-09T15:13:33.077Z,91143.98
2018-12-09T15:16:09.926Z,91147.48
2018-12-09T15:18:46.854Z,91147.98
2018-12-09T15:21:23.646Z,91145.41
2018-12-09T15:24:00.572Z,91137.97
2018-12-09T15:26:42.951Z,91136.87
2018-12-09T15:29:19.847Z,91136.31
2018-12-09T15:31:56.483Z,91130.17
2018-12-09T15:34:33.400Z,91138.80
2018-12-09T15:37:10.028Z,91141.75
2018-12-09T15:39:46.900Z,91137.64
2018-12-09T15:42:23.652Z,91147.28
2018-12-09T15:45:00.285Z,91150.83
2018-12-09T15:47:37.134Z,91154.55
2018-12-09T15:50:13.919Z,91163.48
2018-12-09T15:52:50.624Z,91157.55
2018-12-09T15:55:27.312Z,91159.85
2018-12-09T15:58:04.810Z,91160.99
2018-12-09T16:00:46.795Z,91173.91
2018-12-09T16:03:23.905Z,91179.03
2018-12-09T16:06:00.773Z,91177.10
2018-12-09T16:08:37.626Z,91176.14
2018-12-09T16:11:14.167Z,91171.70
2018-12-09T16:13:50.835Z,91176.66
2018-12-09T16:16:28.848Z,91179.40
2018-12-09T16:19:05.452Z,91181.50
2018-12-09T16:21:42.688Z,91183.91
2018-12-09T16:24:19.401Z,91193.00
2018-12-09T16:26:56.217Z,91190.69
2018-12-09T16:29:33.087Z,91193.95
2018-12-09T16:32:09.826Z,91194.04
2018-12-09T16:34:46.442Z,91193.04
2018-12-09T16:37:23.084Z,91192.09
2018-12-09T16:40:02.716Z,91189.75
2018-12-09T16:42:40.786Z,91198.58
2018-12-09T16:45:17.759Z,91206.78
2018-12-09T16:47:54.590Z,91206.86
2018-12-09T16:50:32.838Z,91203.89
2018-12-09T16:53:10.202Z,91197.34
2018-12-09T16:55:49.423Z,91187.10
2018-12-09T16:58:25.799Z,91181.16
2018-12-09T17:01:03.816Z,91177.78
2018-12-09T17:03:41.323Z,91163.58
2018-12-09T17:06:17.965Z,91174.83
2018-12-09T17:08:49.321Z,91185.23
2018-12-09T17:11:20.935Z,91185.66
2018-12-09T17:13:52.732Z,91195.19
2018-12-09T17:16:24.748Z,91191.31
2018-12-09T17:18:56.444Z,91181.73
2018-12-09T17:21:28.332Z,91188.41
2018-12-09T17:24:00.078Z,91190.21
2018-12-09T17:26:32.325Z,91195.23
2018-12-09T17:29:05.519Z,91194.70
2018-12-09T17:31:35.991Z,91205.28
2018-12-09T17:34:07.727Z,91200.98
2018-12-09T17:36:39.411Z,91201.02
2018-12-09T17:39:11.969Z,91197.53
2018-12-09T17:41:44.724Z,91198.37
2018-12-09T17:44:16.993Z,91195.30
2018-12-09T17:46:48.972Z,91195.88
2018-12-09T17:49:20.638Z,91193.33
2018-12-09T17:51:52.897Z,91188.36
2018-12-09T17:54:24.400Z,91198.37
2018-12-09T17:56:56.134Z,91194.68
2018-12-09T17:59:28.756Z,91189.87
2018-12-09T18:02:00.516Z,91193.61
2018-12-09T18:04:36.457Z,91201.61
2018-12-09T18:07:07.971Z,91198.84
2018-12-09T18:09:39.334Z,91199.88
2018-12-09T18:12:10.600Z,91203.75
2018-12-09T18:14:43.490Z,91201.20
2018-12-09T18:17:14.775Z,91201.05
2018-12-09T18:19:46.039Z,91202.33
2018-12-09T18:22:17.404Z,91198.59
2018-12-09T18:24:51.387Z,91205.84
2018-12-09T18:27:27.063Z,91199.63
2018-12-09T18:29:59.038Z,91196.44
2018-12-09T18:32:30.720Z,91201.17
2018-12-09T18:35:02.306Z,91195.88
2018-12-09T18:37:34.899Z,91199.07
2018-12-09T18:40:08.751Z,91198.31
2018-12-09T18:42:40.852Z,91197.50
2018-12-09T18:45:13.021Z,91200.95
2018-12-09T18:47:46.126Z,91208.78
2018-12-09T18:50:18.094Z,91212.44
2018-12-09T18:52:50.089Z,91211.51
2018-12-09T18:55:22.592Z,91210.50
2018-12-09T18:57:54.456Z,91212.08
2018-12-09T19:00:28.585Z,91215.90
2018-12-09T19:03:00.547Z,91214.88
2018-12-09T19:05:32.407Z,91217.93
2018-12-09T19:08:05.356Z,91217.66
2018-12-09T19:10:37.299Z,91209.34
2018-12-09T19:13:09.118Z,91210.33
2018-12-09T19:15:40.692Z,91209.25
2018-12-09T19:18:11.915Z,91202.20
2018-12-09T19:20:43.166Z,91198.31
2018-12-09T19:23:14.381Z,91199.27
2018-12-09T19:25:45.699Z,91198.44
2018-12-09T19:28:17.110Z,91195.30
2018-12-09T19:30:48.590Z,91195.30
2018-12-09T19:33:19.640Z,91206.83
2018-12-09T19:35:50.902Z,91214.21
2018-12-09T19:38:22.043Z,91213.53
2018-12-09T19:40:53.305Z,91216.58
2018-12-09T19:43:24.463Z,91222.94
2018-12-09T19:45:55.709Z,91226.74
2018-12-09T19:48:26.906Z,91227.55
2018-12-09T19:50:58.110Z,91232.62
2018-12-09T19:53:29.501Z,91228.30
2018-12-09T19:56:00.834Z,91245.48
2018-12-09T19:58:31.994Z,91245.29
2018-12-09T20:01:03.722Z,91255.56
2018-12-09T20:03:34.947Z,91260.72
2018-12-09T20:06:06.272Z,91258.08
2018-12-09T20:08:37.525Z,91266.37
2018-12-09T20:11:08.826Z,91265.69
2018-12-09T20:13:40.018Z,91277.38
2018-12-09T20:16:11.451Z,91264.49
2018-12-09T20:18:42.584Z,91262.77
2018-12-09T20:21:13.836Z,91248.16
2018-12-09T20:23:45.084Z,91244.91
2018-12-09T20:26:16.476Z,91244.50
2018-12-09T20:28:47.718Z,91236.98
2018-12-09T20:31:18.914Z,91231.41
2018-12-09T20:33:50.144Z,91229.98
2018-12-09T20:36:21.402Z,91229.69
2018-12-09T20:38:52.577Z,91219.83
2018-12-09T20:41:24.033Z,91215.06
2018-12-09T20:43:55.203Z,91207.66
2018-12-09T20:46:26.476Z,91212.94
2018-12-09T20:48:57.633Z,91204.20
2018-12-09T20:51:28.846Z,91191.61
2018-12-09T20:53:59.966Z,91181.28
2018-12-09T20:56:31.325Z,91182.39
2018-12-09T20:59:07.508Z,91174.27
2018-12-09T21:01:38.738Z,91177.63
2018-12-09T21:04:09.884Z,91169.20
2018-12-09T21:06:41.102Z,91174.98
2018-12-09T21:09:12.275Z,91171.92
2018-12-09T21:11:43.503Z,91174.27
2018-12-09T21:14:14.646Z,91174.58
2018-12-09T21:16:46.021Z,91179.34
2018-12-09T21:19:17.430Z,91182.69
2018-12-09T21:21:48.695Z,91186.74
2018-12-09T21:24:25.835Z,91190.50
2018-12-09T21:26:51.391Z,91189.30
2018-12-09T21:29:22.641Z,91193.95
2018-12-09T21:31:54.108Z,91197.16
2018-12-09T21:34:25.996Z,91199.38
2018-12-09T21:36:57.341Z,91201.88
2018-12-09T21:40:01.629Z,91205.73
2018-12-09T21:42:33.038Z,91196.70
2018-12-09T21:45:04.317Z,91190.91
2018-12-09T21:47:35.525Z,91197.22
2018-12-09T21:50:07.312Z,91189.04
2018-12-09T21:52:38.565Z,91195.77
2018-12-09T21:55:09.686Z,91201.53
2018-12-09T21:57:41.238Z,91197.51
2018-12-09T22:00:12.458Z,91196.75
2018-12-09T22:02:43.638Z,91198.67
2018-12-09T22:05:15.783Z,91193.72
2018-12-09T22:07:47.152Z,91191.80
2018-12-09T22:10:18.287Z,91191.59
2018-12-09T22:12:49.524Z,91191.63
2018-12-09T22:15:21.556Z,91191.03
2018-12-09T22:17:52.817Z,91177.86
2018-12-09T22:20:24.023Z,91173.69
2018-12-09T22:23:07.029Z,91174.57
2018-12-09T22:25:38.147Z,91174.81
2018-12-09T22:28:09.336Z,91163.62
2018-12-09T22:30:40.604Z,91164.94
2018-12-09T22:33:11.807Z,91161.05
2018-12-09T22:35:42.949Z,91161.78
2018-12-09T22:38:14.195Z,91155.59
2018-12-09T22:40:45.328Z,91154.28
2018-12-09T22:43:16.547Z,91154.59
2018-12-09T22:45:47.710Z,91146.94
2018-12-09T22:48:18.963Z,91148.38
2018-12-09T22:50:50.078Z,91151.07
2018-12-09T22:53:21.282Z,91142.48
2018-12-09T22:55:52.432Z,91134.05
2018-12-09T22:59:47.680Z,91134.30
2018-12-09T23:02:24.072Z,91139.97
2018-12-09T23:04:55.221Z,91136.04
2018-12-09T23:07:31.282Z,91139.98
2018-12-09T23:10:02.600Z,91137.48
2018-12-09T23:12:33.740Z,91138.36
2018-12-09T23:15:05.022Z,91137.31
2018-12-09T23:17:36.184Z,91132.84
2018-12-09T23:20:07.861Z,91133.67
2018-12-09T23:22:39.050Z,91131.56
2018-12-09T23:25:10.293Z,91125.41
2018-12-09T23:27:41.492Z,91119.33
2018-12-09T23:30:12.726Z,91116.63
2018-12-09T23:32:46.423Z,91113.45
2018-12-09T23:35:17.638Z,91116.88
2018-12-09T23:37:48.792Z,91124.00
2018-12-09T23:40:20.086Z,91120.14
2018-12-09T23:42:51.518Z,91127.98
2018-12-09T23:45:22.720Z,91125.83
2018-12-09T23:47:53.892Z,91116.67
2018-12-09T23:50:25.221Z,91126.97
2018-12-09T23:52:56.393Z,91119.45
2018-12-09T23:55:27.628Z,91122.61
2018-12-09T23:57:58.785Z,91117.76
